Hovedside
METAR-TAF:

METAR-TAF

Lufthavner :

Ivalo lufthavn

Ivalo, Finland

breddegrad: 68-37N, lengdegrad: 027-25E, høyde over havet: 147 m

Gjeldene værobservasjon

Denne rapporten ble laget for 38 minutter siden, klokken 05:50 UTC
Vind 6 kt fra Vest-sørvest
Temperatur -2°C
Luftfuktighet 93%
Trykk 1010 hPa
Sikt 10 km eller mer
Overskyet i en høyde av 3400 ft

METAR: EFIV 150550Z AUTO 24006KT 9999 OVC034 M02/M03 Q1010

Tid: 08:28 (06:28 UTC)

Varsel

Denne rapporten ble laget for 1 time og 1 minutter siden, klokken 05:27 UTC
Varsel gyldig fra 15. klokken 06 UTC til 15. klokken 15 UTC
Vind 7 kt fra Vest
Sikt 10 km eller mer
Brutte skyer i en høyde av 3000 ft

TAF: EFIV 150527Z 1506/1515 26007KT 9999 BKN030

Værobservasjoner og værvarsel for over 4000 flyplasser (METAR- og TAF-rapporter).

Tilgjengelige stasjoner er representert av de røde og gule prikkene på kartet.

Hold musepekeren over prikken for å se navnet på stasjonen.

Klikk så for å se værobservasjoner og -varsler.

For å forandre kartet kan du klikke på den grønne knappen med svart kryss for å zoome inn, på den grønne knappen med strek for å zoome ut, eller på de grønne pilene for å se tilstøtende kart.


METAR-TAF: